createdAt,value
2023-01-05T00:00:12.767Z,64.28
2023-01-05T00:02:18.796Z,64.53
2023-01-05T00:04:26.212Z,64.28
2023-01-05T00:06:28.551Z,64.23
2023-01-05T00:08:36.551Z,64.19
2023-01-05T00:10:42.920Z,64.02
2023-01-05T00:12:48.423Z,64.14
2023-01-05T00:14:53.692Z,64.30
2023-01-05T00:16:59.016Z,64.47
2023-01-05T00:19:04.390Z,64.08
2023-01-05T00:21:18.340Z,64.32
2023-01-05T00:23:21.302Z,64.29
2023-01-05T00:25:26.504Z,64.38
2023-01-05T00:27:29.402Z,64.33
2023-01-05T00:29:31.611Z,64.34
2023-01-05T00:31:33.853Z,64.18
2023-01-05T00:33:36.055Z,63.61
2023-01-05T00:35:39.800Z,63.61
2023-01-05T00:37:43.058Z,64.27
2023-01-05T00:39:45.271Z,64.07
2023-01-05T00:41:47.520Z,63.98
2023-01-05T00:43:49.783Z,64.32
2023-01-05T00:45:52.075Z,64.29
2023-01-05T00:47:55.368Z,64.11
2023-01-05T00:49:57.704Z,64.06
2023-01-05T00:52:00.069Z,64.18
2023-01-05T00:54:02.292Z,63.69
2023-01-05T00:56:04.934Z,63.97
2023-01-05T00:58:07.113Z,63.76
2023-01-05T01:00:13.748Z,64.11
2023-01-05T01:02:16.459Z,63.70
2023-01-05T01:04:19.836Z,63.81
2023-01-05T01:06:22.520Z,63.49
2023-01-05T01:08:24.940Z,63.96
2023-01-05T01:10:27.217Z,63.63
2023-01-05T01:12:29.479Z,64.03
2023-01-05T01:14:31.843Z,64.15
2023-01-05T01:16:35.332Z,64.01
2023-01-05T01:18:37.693Z,64.02
2023-01-05T01:20:40.263Z,63.84
2023-01-05T01:22:42.449Z,63.95
2023-01-05T01:24:44.612Z,63.89
2023-01-05T01:26:47.170Z,64.08
2023-01-05T01:28:49.619Z,63.53
2023-01-05T01:30:51.916Z,63.59
2023-01-05T01:32:54.155Z,63.56
2023-01-05T01:34:56.436Z,64.10
2023-01-05T01:36:59.354Z,63.76
2023-01-05T01:39:01.574Z,64.16
2023-01-05T01:41:04.026Z,63.80
2023-01-05T01:43:12.564Z,63.98
2023-01-05T01:45:20.816Z,63.76
2023-01-05T01:47:28.415Z,63.70
2023-01-05T01:49:30.571Z,64.07
2023-01-05T01:51:37.359Z,63.95
2023-01-05T01:53:43.362Z,63.76
2023-01-05T01:55:45.691Z,64.03
2023-01-05T01:57:50.674Z,63.95
2023-01-05T01:59:53.137Z,64.24
2023-01-05T02:02:00.157Z,63.70
2023-01-05T02:04:04.347Z,64.18
2023-01-05T02:06:07.391Z,64.30
2023-01-05T02:08:13.441Z,64.62
2023-01-05T02:10:19.352Z,64.61
2023-01-05T02:12:26.057Z,64.65
2023-01-05T02:14:30.021Z,64.59
2023-01-05T02:16:36.819Z,64.51
2023-01-05T02:18:51.796Z,64.49
2023-01-05T02:21:02.192Z,64.81
2023-01-05T02:23:06.160Z,65.19
2023-01-05T02:25:19.010Z,65.02
2023-01-05T02:27:27.585Z,64.91
2023-01-05T02:29:42.961Z,65.08
2023-01-05T02:31:55.395Z,65.16
2023-01-05T02:34:03.403Z,65.29
2023-01-05T02:36:09.260Z,64.85
2023-01-05T02:38:17.651Z,65.00
2023-01-05T02:40:25.539Z,64.90
2023-01-05T02:42:33.113Z,65.36
2023-01-05T02:44:35.378Z,65.36
2023-01-05T02:46:38.086Z,65.27
2023-01-05T02:48:42.450Z,65.35
2023-01-05T02:50:48.156Z,65.29
2023-01-05T02:52:59.612Z,65.80
2023-01-05T02:55:06.492Z,65.68
2023-01-05T02:57:14.264Z,65.95
2023-01-05T02:59:24.646Z,65.32
2023-01-05T03:01:32.822Z,65.57
2023-01-05T03:03:41.042Z,65.29
2023-01-05T03:05:52.490Z,65.61
2023-01-05T03:08:01.148Z,65.90
2023-01-05T03:10:24.574Z,66.00
2023-01-05T03:12:36.881Z,65.58
2023-01-05T03:14:46.672Z,66.27
2023-01-05T03:16:51.387Z,66.00
2023-01-05T03:18:58.772Z,66.12
2023-01-05T03:21:02.249Z,65.67
2023-01-05T03:23:12.977Z,66.10
2023-01-05T03:25:22.866Z,66.00
2023-01-05T03:27:28.559Z,66.02
2023-01-05T03:29:34.050Z,66.00
2023-01-05T03:31:48.051Z,66.05
2023-01-05T03:34:04.777Z,65.98
2023-01-05T03:36:09.464Z,66.52
2023-01-05T03:38:18.247Z,66.46
2023-01-05T03:40:25.926Z,66.56
2023-01-05T03:42:30.613Z,66.53
2023-01-05T03:44:36.672Z,66.58
2023-01-05T03:46:41.366Z,66.71
2023-01-05T03:48:43.986Z,66.60
2023-01-05T03:50:47.760Z,66.38
2023-01-05T03:52:50.044Z,66.39
2023-01-05T03:54:52.189Z,66.01
2023-01-05T03:56:54.413Z,66.24
2023-01-05T03:58:56.795Z,66.65
2023-01-05T04:00:58.911Z,66.48
2023-01-05T04:03:01.396Z,66.61
2023-01-05T04:05:03.700Z,66.62
2023-01-05T04:07:07.764Z,66.68
2023-01-05T04:09:10.030Z,66.65
2023-01-05T04:11:16.250Z,66.62
2023-01-05T04:13:18.683Z,66.11
2023-01-05T04:15:20.979Z,66.64
2023-01-05T04:17:23.322Z,66.56
2023-01-05T04:19:25.544Z,66.03
2023-01-05T04:21:27.915Z,65.91
2023-01-05T04:23:30.212Z,66.18
2023-01-05T04:25:32.473Z,66.20
2023-01-05T04:27:35.003Z,66.50
2023-01-05T04:29:37.682Z,66.32
2023-01-05T04:31:39.999Z,66.40
2023-01-05T04:33:45.613Z,66.19
2023-01-05T04:35:48.256Z,66.54
2023-01-05T04:37:50.563Z,66.27
2023-01-05T04:39:52.772Z,66.95
2023-01-05T04:41:54.998Z,66.95
2023-01-05T04:43:57.299Z,66.75
2023-01-05T04:45:59.638Z,66.85
2023-01-05T04:48:01.919Z,66.88
2023-01-05T04:50:04.872Z,67.36
2023-01-05T04:52:07.972Z,66.81
2023-01-05T04:54:10.507Z,67.18
2023-01-05T04:56:12.711Z,67.26
2023-01-05T04:58:15.112Z,67.35
2023-01-05T05:00:17.538Z,67.20
2023-01-05T05:02:20.070Z,67.24
2023-01-05T05:04:22.394Z,67.31
2023-01-05T05:06:24.699Z,66.96
2023-01-05T05:08:26.929Z,67.03
2023-01-05T05:10:29.327Z,67.46
2023-01-05T05:12:31.632Z,67.86
2023-01-05T05:14:33.878Z,67.64
2023-01-05T05:16:36.062Z,67.58
2023-01-05T05:18:38.480Z,67.71
2023-01-05T05:20:44.565Z,67.87
2023-01-05T05:22:46.822Z,67.59
2023-01-05T05:24:49.171Z,68.26
2023-01-05T05:26:51.476Z,68.11
2023-01-05T05:28:53.732Z,67.75
2023-01-05T05:30:57.369Z,68.15
2023-01-05T05:32:59.678Z,68.42
2023-01-05T05:35:02.035Z,68.57
2023-01-05T05:37:04.258Z,68.47
2023-01-05T05:39:06.532Z,68.12
2023-01-05T05:41:08.713Z,68.48
2023-01-05T05:43:10.936Z,68.17
2023-01-05T05:45:13.117Z,68.74
2023-01-05T05:47:15.299Z,69.16
2023-01-05T05:49:17.673Z,68.79
2023-01-05T05:51:19.870Z,68.83
2023-01-05T05:53:22.222Z,68.63
2023-01-05T05:55:24.474Z,69.05
2023-01-05T05:57:26.700Z,68.70
2023-01-05T05:59:28.871Z,68.80
2023-01-05T06:01:31.094Z,68.84
2023-01-05T06:03:33.400Z,68.74
2023-01-05T06:05:35.822Z,68.99
2023-01-05T06:07:38.102Z,68.74
2023-01-05T06:09:40.352Z,68.88
2023-01-05T06:11:42.571Z,69.01
2023-01-05T06:13:44.931Z,68.95
2023-01-05T06:15:47.363Z,69.47
2023-01-05T06:17:49.755Z,69.04
2023-01-05T06:19:52.043Z,69.19
2023-01-05T06:21:54.231Z,68.73
2023-01-05T06:23:56.375Z,68.69
2023-01-05T06:25:58.633Z,68.97
2023-01-05T06:28:01.210Z,68.97
2023-01-05T06:30:04.684Z,69.05
2023-01-05T06:32:06.997Z,69.19
2023-01-05T06:34:09.235Z,69.31
2023-01-05T06:36:11.548Z,69.64
2023-01-05T06:38:16.350Z,69.60
2023-01-05T06:40:18.722Z,69.25
2023-01-05T06:42:23.535Z,69.88
2023-01-05T06:44:26.307Z,69.67
2023-01-05T06:46:28.615Z,69.47
2023-01-05T06:48:30.880Z,69.37
2023-01-05T06:50:33.109Z,69.77
2023-01-05T06:52:40.036Z,69.62
2023-01-05T06:54:42.372Z,69.81
2023-01-05T06:56:44.649Z,69.40
2023-01-05T06:58:46.852Z,69.91
2023-01-05T07:00:49.128Z,69.72
2023-01-05T07:02:51.411Z,69.89
2023-01-05T07:04:53.601Z,70.24
2023-01-05T07:06:55.988Z,69.79
2023-01-05T07:08:58.245Z,69.90
2023-01-05T07:11:00.501Z,69.66
2023-01-05T07:13:02.774Z,69.68
2023-01-05T07:15:06.359Z,69.61
2023-01-05T07:17:08.765Z,69.90
2023-01-05T07:19:11.250Z,70.06
2023-01-05T07:21:13.494Z,69.75
2023-01-05T07:23:15.771Z,70.27
2023-01-05T07:25:18.581Z,70.07
2023-01-05T07:27:20.912Z,70.20
2023-01-05T07:29:23.145Z,70.32
2023-01-05T07:31:25.362Z,70.24
2023-01-05T07:33:27.646Z,70.57
2023-01-05T07:35:30.001Z,70.60
2023-01-05T07:37:32.251Z,70.68
2023-01-05T07:39:34.803Z,70.81
2023-01-05T07:41:37.324Z,70.92
2023-01-05T07:43:39.611Z,70.37
2023-01-05T07:45:42.377Z,70.82
2023-01-05T07:47:44.828Z,71.24
2023-01-05T07:49:47.176Z,71.50
2023-01-05T07:51:49.621Z,72.12
2023-01-05T07:53:51.936Z,72.67
2023-01-05T07:55:59.444Z,72.68
2023-01-05T07:58:01.774Z,72.46
2023-01-05T08:00:05.500Z,73.04
2023-01-05T08:02:09.261Z,73.30
2023-01-05T08:04:11.736Z,73.57
2023-01-05T08:06:18.895Z,73.56
2023-01-05T08:08:24.587Z,73.92
2023-01-05T08:10:30.257Z,73.74
2023-01-05T08:12:32.696Z,74.75
2023-01-05T08:14:34.990Z,74.47
2023-01-05T08:16:37.266Z,74.52
2023-01-05T08:18:39.632Z,74.73
2023-01-05T08:20:41.867Z,74.48
2023-01-05T08:22:44.130Z,74.85
2023-01-05T08:24:46.380Z,74.81
2023-01-05T08:26:51.659Z,74.62
2023-01-05T08:28:54.268Z,74.71
2023-01-05T08:31:02.487Z,74.70
2023-01-05T08:33:05.614Z,74.53
2023-01-05T08:35:08.359Z,74.50
2023-01-05T08:37:10.670Z,74.64
2023-01-05T08:39:13.573Z,74.90
2023-01-05T08:41:19.228Z,74.97
2023-01-05T08:43:22.260Z,74.75
2023-01-05T08:45:24.673Z,74.83
2023-01-05T08:47:28.610Z,75.07
2023-01-05T08:49:31.315Z,74.86
2023-01-05T08:51:34.071Z,75.14
2023-01-05T08:53:36.374Z,75.19
2023-01-05T08:55:38.574Z,75.21
2023-01-05T08:57:41.003Z,75.39
2023-01-05T08:59:43.202Z,75.20
2023-01-05T09:01:45.862Z,75.89
2023-01-05T09:03:48.556Z,75.93
2023-01-05T09:05:54.428Z,75.86
2023-01-05T09:07:57.149Z,75.85
2023-01-05T09:09:59.488Z,75.83
2023-01-05T09:12:01.735Z,76.09
2023-01-05T09:14:04.264Z,75.85
2023-01-05T09:16:08.569Z,75.90
2023-01-05T09:18:10.940Z,75.99
2023-01-05T09:20:13.251Z,76.18
2023-01-05T09:22:15.519Z,75.75
2023-01-05T09:24:17.860Z,75.80
2023-01-05T09:26:20.336Z,75.66
2023-01-05T09:28:22.721Z,75.21
2023-01-05T09:30:25.110Z,75.93
2023-01-05T09:32:27.364Z,76.00
2023-01-05T09:34:29.951Z,75.96
2023-01-05T09:36:32.702Z,75.74
2023-01-05T09:38:35.475Z,75.49
2023-01-05T09:40:44.056Z,75.77
2023-01-05T09:42:47.128Z,75.66
2023-01-05T09:44:58.933Z,75.05
2023-01-05T09:47:13.816Z,75.22
2023-01-05T09:49:17.634Z,75.19
2023-01-05T09:51:20.371Z,75.33
2023-01-05T09:53:30.481Z,75.04
2023-01-05T09:55:35.391Z,74.91
2023-01-05T09:57:37.848Z,75.05
2023-01-05T09:59:47.721Z,74.78
2023-01-05T10:01:52.099Z,74.85
2023-01-05T10:04:04.642Z,74.80
2023-01-05T10:06:13.968Z,74.22
2023-01-05T10:08:23.235Z,74.45
2023-01-05T10:10:36.391Z,74.14
2023-01-05T10:12:45.172Z,74.09
2023-01-05T10:14:53.379Z,73.94
2023-01-05T10:17:30.184Z,73.60
2023-01-05T10:19:20.921Z,73.48
2023-01-05T10:21:34.140Z,73.42
2023-01-05T10:23:38.108Z,73.35
2023-01-05T10:25:48.053Z,73.49
2023-01-05T10:27:56.717Z,73.51
2023-01-05T10:30:11.942Z,73.59
2023-01-05T10:32:18.740Z,73.29
2023-01-05T10:34:23.781Z,73.10
2023-01-05T10:37:06.561Z,73.55
2023-01-05T10:39:01.260Z,73.34
2023-01-05T10:41:09.761Z,73.35
2023-01-05T10:43:19.058Z,73.18
2023-01-05T10:45:23.340Z,72.85
2023-01-05T10:47:29.126Z,72.90
2023-01-05T10:49:32.942Z,72.81
2023-01-05T10:51:36.951Z,72.61
2023-01-05T10:53:42.035Z,73.04
2023-01-05T10:55:50.498Z,73.05
2023-01-05T10:57:52.679Z,72.80
2023-01-05T10:59:59.415Z,72.67
2023-01-05T11:02:02.131Z,72.37
2023-01-05T11:06:34.922Z,72.48
2023-01-05T11:08:37.631Z,72.23
2023-01-05T11:10:48.621Z,72.18
2023-01-05T11:12:55.120Z,72.24
2023-01-05T11:15:01.194Z,72.22
2023-01-05T11:17:07.244Z,71.81
2023-01-05T11:19:16.821Z,71.68
2023-01-05T11:21:23.671Z,71.08
2023-01-05T11:23:36.849Z,70.87
2023-01-05T11:25:40.124Z,70.38
2023-01-05T11:27:42.340Z,70.33
2023-01-05T11:29:44.758Z,70.37
2023-01-05T11:31:53.163Z,70.17
2023-01-05T11:33:58.668Z,69.84
2023-01-05T11:36:03.243Z,69.89
2023-01-05T11:38:06.598Z,69.45
2023-01-05T11:40:17.685Z,69.57
2023-01-05T11:42:26.461Z,69.76
2023-01-05T11:44:29.471Z,69.41
2023-01-05T11:48:52.533Z,68.71
2023-01-05T11:50:57.782Z,69.04
2023-01-05T11:53:02.707Z,68.81
2023-01-05T11:55:16.103Z,68.54
2023-01-05T11:57:22.928Z,68.72
2023-01-05T11:59:30.264Z,68.34
2023-01-05T12:01:47.330Z,68.59
2023-01-05T12:04:01.953Z,68.48
2023-01-05T12:06:14.561Z,67.92
2023-01-05T12:08:25.119Z,67.98
2023-01-05T12:10:31.982Z,68.07
2023-01-05T12:12:47.031Z,68.03
2023-01-05T12:14:58.343Z,67.74
2023-01-05T12:17:09.003Z,67.86
2023-01-05T12:19:14.254Z,67.97
2023-01-05T12:21:22.720Z,67.58
2023-01-05T12:23:29.649Z,67.77
2023-01-05T12:25:45.116Z,67.59
2023-01-05T12:27:53.511Z,67.44
2023-01-05T12:35:09.554Z,66.93
2023-01-05T12:37:18.251Z,66.75
2023-01-05T12:39:31.569Z,66.64
2023-01-05T12:41:38.648Z,66.79
2023-01-05T12:43:44.357Z,66.04
2023-01-05T12:45:52.886Z,65.90
2023-01-05T12:48:03.766Z,66.02
2023-01-05T12:50:20.096Z,66.02
2023-01-05T12:52:24.680Z,66.39
2023-01-05T12:54:33.865Z,66.43
2023-01-05T12:56:43.650Z,66.67
2023-01-05T12:58:56.452Z,66.49
2023-01-05T13:01:01.223Z,65.99
2023-01-05T13:03:13.512Z,66.24
2023-01-05T13:05:20.531Z,66.10
2023-01-05T13:07:29.529Z,66.13
2023-01-05T13:09:33.366Z,66.21
2023-01-05T13:11:41.040Z,65.72
2023-01-05T13:13:49.459Z,65.80
2023-01-05T13:15:58.194Z,65.50
2023-01-05T13:18:04.473Z,66.04
2023-01-05T13:20:13.379Z,65.83
2023-01-05T13:22:24.219Z,65.84
2023-01-05T13:24:31.602Z,65.55
2023-01-05T13:26:38.037Z,65.43
2023-01-05T13:28:40.801Z,65.08
2023-01-05T13:30:55.943Z,65.38
2023-01-05T13:33:02.101Z,65.26
2023-01-05T13:35:08.627Z,65.41
2023-01-05T13:37:23.330Z,65.32
2023-01-05T13:39:34.213Z,65.08
2023-01-05T13:41:38.095Z,65.29
2023-01-05T13:43:43.827Z,64.98
2023-01-05T13:45:50.839Z,64.68
2023-01-05T13:47:57.497Z,64.71
2023-01-05T13:50:03.409Z,64.45
2023-01-05T13:52:12.025Z,64.33
2023-01-05T13:54:19.485Z,63.81
2023-01-05T13:56:26.911Z,63.90
2023-01-05T13:58:38.609Z,64.09
2023-01-05T14:00:43.938Z,64.27
2023-01-05T14:02:57.192Z,64.44
2023-01-05T14:04:59.952Z,64.37
2023-01-05T14:07:07.460Z,63.90
2023-01-05T14:09:18.532Z,63.97
2023-01-05T14:11:24.112Z,63.91
2023-01-05T14:13:32.531Z,63.69
2023-01-05T14:15:37.918Z,63.14
2023-01-05T14:17:46.368Z,63.44
2023-01-05T14:19:53.459Z,63.11
2023-01-05T14:22:00.139Z,63.05
2023-01-05T14:24:02.319Z,63.03
2023-01-05T14:26:06.965Z,62.51
2023-01-05T14:28:15.503Z,61.90
2023-01-05T14:30:21.926Z,62.00
2023-01-05T14:32:30.403Z,61.93
2023-01-05T14:34:32.775Z,61.92
2023-01-05T14:36:39.989Z,61.82
2023-01-05T14:38:48.510Z,61.96
2023-01-05T14:40:55.976Z,61.53
2023-01-05T14:42:59.396Z,61.76
2023-01-05T14:45:07.129Z,61.55
2023-01-05T14:47:10.512Z,61.61
2023-01-05T14:49:23.204Z,61.47
2023-01-05T14:51:29.895Z,61.49
2023-01-05T14:53:38.372Z,61.48
2023-01-05T14:56:03.574Z,61.46
2023-01-05T14:58:13.071Z,61.80
2023-01-05T15:00:23.743Z,62.00
2023-01-05T15:02:34.419Z,61.98
2023-01-05T15:04:39.497Z,62.26
2023-01-05T15:06:45.346Z,61.76
2023-01-05T15:08:52.007Z,62.13
2023-01-05T15:11:04.620Z,61.71
2023-01-05T15:13:13.516Z,61.42
2023-01-05T15:15:20.800Z,61.43
2023-01-05T15:17:26.751Z,60.96
2023-01-05T15:19:31.736Z,61.39
2023-01-05T15:21:43.839Z,61.19
2023-01-05T15:23:49.880Z,61.40
2023-01-05T15:26:08.041Z,61.44
2023-01-05T15:28:23.554Z,61.87
2023-01-05T15:30:30.582Z,61.82
2023-01-05T15:32:39.439Z,61.90
2023-01-05T15:34:47.669Z,62.12
2023-01-05T15:36:53.226Z,62.31
2023-01-05T15:38:55.730Z,62.22
2023-01-05T15:41:02.731Z,62.80
2023-01-05T15:43:05.609Z,63.05
2023-01-05T15:45:18.145Z,62.65
2023-01-05T15:47:23.042Z,62.48
2023-01-05T15:49:29.815Z,62.71
2023-01-05T15:51:33.621Z,63.14
2023-01-05T15:53:41.491Z,63.03
2023-01-05T15:55:46.777Z,63.10
2023-01-05T15:57:55.277Z,63.10
2023-01-05T15:59:57.610Z,63.50
2023-01-05T16:02:00.366Z,63.59
2023-01-05T16:04:09.187Z,63.42
2023-01-05T16:06:16.427Z,63.30
2023-01-05T16:08:18.818Z,63.54
2023-01-05T16:10:27.278Z,64.06
2023-01-05T16:12:29.595Z,63.86
2023-01-05T16:14:36.814Z,63.80
2023-01-05T16:16:52.589Z,64.13
2023-01-05T16:19:01.105Z,64.18
2023-01-05T16:21:16.103Z,64.78
2023-01-05T16:23:28.800Z,64.72
2023-01-05T16:25:42.200Z,65.05
2023-01-05T16:27:48.675Z,65.81
2023-01-05T16:29:51.247Z,66.32
2023-01-05T16:31:55.747Z,67.39
2023-01-05T16:34:02.210Z,67.74
2023-01-05T16:36:10.650Z,67.98
2023-01-05T16:38:14.171Z,68.02
2023-01-05T16:40:20.979Z,68.39
2023-01-05T16:42:26.651Z,68.46
2023-01-05T16:44:33.331Z,68.75
2023-01-05T16:46:40.248Z,68.40
2023-01-05T16:48:47.282Z,68.26
2023-01-05T16:50:55.223Z,68.26
2023-01-05T16:53:00.448Z,68.15
2023-01-05T16:55:10.680Z,68.16
2023-01-05T16:57:21.032Z,68.03
2023-01-05T16:59:34.148Z,68.07
2023-01-05T17:01:44.129Z,68.15
2023-01-05T17:03:46.857Z,68.26
2023-01-05T17:05:52.690Z,67.56
2023-01-05T17:08:01.076Z,67.48
2023-01-05T17:10:03.635Z,67.87
2023-01-05T17:12:06.140Z,67.83
2023-01-05T17:14:09.810Z,67.60
2023-01-05T17:16:13.508Z,67.53
2023-01-05T17:18:18.694Z,67.64
2023-01-05T17:20:21.012Z,67.67
2023-01-05T17:22:23.291Z,67.18
2023-01-05T17:24:27.713Z,67.40
2023-01-05T17:26:36.539Z,67.09
2023-01-05T17:28:42.040Z,67.40
2023-01-05T17:30:46.498Z,67.07
2023-01-05T17:32:52.256Z,67.08
2023-01-05T17:34:54.535Z,67.22
2023-01-05T17:36:59.386Z,67.15
2023-01-05T17:39:01.937Z,67.29
2023-01-05T17:41:04.409Z,67.29
2023-01-05T17:43:07.417Z,67.57
2023-01-05T17:45:13.351Z,67.35
2023-01-05T17:47:15.662Z,67.17
2023-01-05T17:49:21.479Z,67.20
2023-01-05T17:51:23.819Z,67.19
2023-01-05T17:53:26.200Z,67.00
2023-01-05T17:55:29.850Z,67.20
2023-01-05T17:57:32.180Z,66.92
2023-01-05T17:59:34.478Z,67.00
2023-01-05T18:01:36.695Z,67.15
2023-01-05T18:03:39.073Z,67.16
2023-01-05T18:07:43.936Z,67.41
2023-01-05T18:09:46.015Z,68.25
2023-01-05T18:11:50.809Z,67.97
2023-01-05T18:13:54.034Z,67.80
2023-01-05T18:18:00.446Z,67.90
2023-01-05T18:20:03.001Z,67.85
2023-01-05T18:22:06.048Z,68.03
2023-01-05T18:24:08.387Z,67.76
2023-01-05T18:26:10.991Z,67.50
2023-01-05T18:28:13.577Z,67.51
2023-01-05T18:30:15.959Z,67.55
2023-01-05T18:32:18.539Z,67.73
2023-01-05T18:34:21.060Z,68.12
2023-01-05T18:36:23.242Z,68.02
2023-01-05T18:38:25.527Z,68.07
2023-01-05T18:40:29.138Z,67.90
2023-01-05T18:42:31.362Z,68.23
2023-01-05T18:44:33.603Z,68.30
2023-01-05T18:46:36.168Z,68.84
2023-01-05T18:48:38.563Z,68.71
2023-01-05T18:50:44.961Z,68.88
2023-01-05T18:52:48.965Z,68.91
2023-01-05T18:54:51.317Z,68.75
2023-01-05T18:56:53.620Z,68.44
2023-01-05T18:58:56.372Z,68.96
2023-01-05T19:00:58.675Z,68.75
2023-01-05T19:03:01.115Z,68.41
2023-01-05T19:05:03.388Z,68.55
2023-01-05T19:07:05.679Z,68.68
2023-01-05T19:09:09.638Z,68.85
2023-01-05T19:11:14.212Z,69.34
2023-01-05T19:13:16.515Z,69.51
2023-01-05T19:15:18.748Z,70.10
2023-01-05T19:17:21.000Z,70.02
2023-01-05T19:19:23.415Z,70.02
2023-01-05T19:21:26.692Z,69.78
2023-01-05T19:23:29.184Z,69.82
2023-01-05T19:25:31.439Z,70.04
2023-01-05T19:27:33.713Z,69.59
2023-01-05T19:29:36.026Z,69.72
2023-01-05T19:31:39.039Z,69.95
2023-01-05T19:33:42.393Z,69.75
2023-01-05T19:35:44.651Z,69.96
2023-01-05T19:37:47.382Z,69.66
2023-01-05T19:39:49.665Z,69.73
2023-01-05T19:41:52.113Z,70.19
2023-01-05T19:43:56.221Z,70.32
2023-01-05T19:46:00.459Z,70.14
2023-01-05T19:48:02.714Z,70.15
2023-01-05T19:50:05.714Z,70.31
2023-01-05T19:52:07.975Z,70.18
2023-01-05T19:54:11.353Z,70.15
2023-01-05T19:56:15.831Z,69.95
2023-01-05T19:58:18.063Z,70.01
2023-01-05T20:00:20.314Z,70.22
2023-01-05T20:02:22.692Z,70.29
2023-01-05T20:04:25.077Z,69.97
2023-01-05T20:06:30.684Z,69.75
2023-01-05T20:08:33.799Z,69.50
2023-01-05T20:10:38.256Z,69.19
2023-01-05T20:12:40.832Z,69.08
2023-01-05T20:14:44.041Z,68.89
2023-01-05T20:16:50.189Z,69.21
2023-01-05T20:18:52.834Z,68.98
2023-01-05T20:20:55.105Z,68.85
2023-01-05T20:22:57.408Z,68.70
2023-01-05T20:24:59.853Z,68.74
2023-01-05T20:27:07.870Z,68.39
2023-01-05T20:29:10.651Z,68.59
2023-01-05T20:31:19.194Z,68.70
2023-01-05T20:33:21.490Z,69.15
2023-01-05T20:35:23.959Z,68.53
2023-01-05T20:37:29.345Z,68.27
2023-01-05T20:39:32.723Z,68.79
2023-01-05T20:41:39.204Z,67.94
2023-01-05T20:43:44.694Z,68.19
2023-01-05T20:45:47.102Z,67.58
2023-01-05T20:47:49.378Z,67.63
2023-01-05T20:49:51.896Z,67.76
2023-01-05T20:51:54.489Z,67.35
2023-01-05T20:53:59.369Z,67.16
2023-01-05T20:56:06.117Z,67.18
2023-01-05T20:58:08.660Z,67.51
2023-01-05T21:00:14.182Z,66.89
2023-01-05T21:02:23.338Z,66.66
2023-01-05T21:04:27.835Z,66.71
2023-01-05T21:06:30.376Z,66.74
2023-01-05T21:08:35.167Z,66.68
2023-01-05T21:10:39.297Z,66.81
2023-01-05T21:12:42.235Z,66.58
2023-01-05T21:14:44.957Z,66.92
2023-01-05T21:16:50.427Z,66.94
2023-01-05T21:18:53.109Z,66.81
2023-01-05T21:20:55.747Z,66.67
2023-01-05T21:22:58.371Z,66.74
2023-01-05T21:25:01.570Z,67.02
2023-01-05T21:27:04.310Z,66.94
2023-01-05T21:29:08.147Z,67.06
2023-01-05T21:31:14.878Z,67.32
2023-01-05T21:33:17.524Z,67.54
2023-01-05T21:35:19.802Z,68.20
2023-01-05T21:37:22.101Z,68.25
2023-01-05T21:39:26.223Z,68.03
2023-01-05T21:41:32.223Z,68.67
2023-01-05T21:43:35.661Z,69.08
2023-01-05T21:45:40.883Z,69.23
2023-01-05T21:47:43.188Z,69.92
2023-01-05T21:49:45.982Z,70.30
2023-01-05T21:51:51.599Z,70.86
2023-01-05T21:53:56.953Z,71.08
2023-01-05T21:56:02.836Z,71.63
2023-01-05T21:58:05.272Z,71.65
2023-01-05T22:00:08.949Z,71.63
2023-01-05T22:02:11.799Z,72.01
2023-01-05T22:04:14.266Z,72.53
2023-01-05T22:06:16.918Z,72.36
2023-01-05T22:08:19.564Z,72.27
2023-01-05T22:10:21.929Z,72.35
2023-01-05T22:12:24.244Z,72.02
2023-01-05T22:14:26.565Z,72.05
2023-01-05T22:16:28.958Z,72.20
2023-01-05T22:18:31.735Z,72.56
2023-01-05T22:20:34.117Z,72.53
2023-01-05T22:22:36.371Z,72.07
2023-01-05T22:24:39.021Z,71.76
2023-01-05T22:26:41.295Z,71.93
2023-01-05T22:28:45.472Z,71.87
2023-01-05T22:30:47.731Z,71.59
2023-01-05T22:32:50.113Z,71.29
2023-01-05T22:34:52.447Z,70.75
2023-01-05T22:36:54.757Z,71.02
2023-01-05T22:38:57.719Z,71.10
2023-01-05T22:41:00.591Z,71.22
2023-01-05T22:43:02.937Z,71.31
2023-01-05T22:45:05.491Z,71.50
2023-01-05T22:47:07.849Z,71.57
2023-01-05T22:49:14.353Z,71.45
2023-01-05T22:51:18.219Z,72.11
2023-01-05T22:53:20.505Z,72.24
2023-01-05T22:55:22.736Z,72.56
2023-01-05T22:57:25.057Z,72.62
2023-01-05T22:59:28.645Z,72.73
2023-01-05T23:01:34.356Z,73.41
2023-01-05T23:03:36.694Z,74.85
2023-01-05T23:05:39.775Z,75.60
2023-01-05T23:07:42.005Z,76.20
2023-01-05T23:09:44.173Z,76.65
2023-01-05T23:11:47.155Z,77.14
2023-01-05T23:13:49.946Z,76.98
2023-01-05T23:15:55.032Z,76.55
2023-01-05T23:17:57.344Z,76.78
2023-01-05T23:19:59.610Z,76.69
2023-01-05T23:22:01.911Z,76.80
2023-01-05T23:24:05.252Z,76.32
2023-01-05T23:26:09.460Z,75.89
2023-01-05T23:28:11.801Z,75.96
2023-01-05T23:30:14.234Z,75.84
2023-01-05T23:32:18.888Z,75.88
2023-01-05T23:34:21.285Z,75.95
2023-01-05T23:36:24.192Z,74.89
2023-01-05T23:38:28.039Z,74.55
2023-01-05T23:40:30.240Z,74.10
2023-01-05T23:42:35.628Z,73.35
2023-01-05T23:44:37.903Z,73.38
2023-01-05T23:46:41.270Z,73.53
2023-01-05T23:48:44.208Z,73.04
2023-01-05T23:50:48.505Z,72.82
2023-01-05T23:52:50.790Z,72.34
2023-01-05T23:54:53.159Z,72.31
2023-01-05T23:56:55.411Z,71.57
2023-01-05T23:59:04.152Z,71.93
